Adams Landing, Vermont
Current Conditions -  °F | °C
As of 6:53 PM on Saturday 22 Nov 2014 (Local Time) from KPBG Reporting Station
Overcast Overcast  
Wind Chill: -2°   Ceiling: 2800
Heat Index:   Visibility: 10mi
Dew Point: -6°   Wind: 9mph
Humidity: 59%   Direction: 170°S
Pressure: 29.93"   Gusts: NA
Location:  44.717°N, 73.3067°W
Report Text: KPBG 222353Z AUTO 17008KT 10SM OVC028 02/M06 A2993 RMK AO2 RAE31 SLP139 P0000 60000 T00171056 10028 20011 50003
Loading
Personal Weather Stations






























Interactive Weather Map New forecast layout! Learn more

10-Day Weather Forecast

Advertisements
Track Severe Weather on mobile